Главная страница
METAR-TAF:

METAR-TAF

Аэропорты :

Ваттай

Вьентьян, Лаос

широта: 17-57N, долгота: 102-34E, высота над уровнем моря: 171 м

Текущие метеонаблюдения

Эта сводка был подготовлена 27 минут назад, в 06:00 UTC
Ветер 4 Узел от юго-восточный
Температура 31°C
Влажность 63%
Давление 1009 hPa
Видимость 10 км и более
Отдельные облака на высоте 2000 фута
Отдельные облака на высоте 5000 фута

METAR: VLVT 130600Z 14004KT 9999 SCT020 SCT050 31/23 Q1009 NOSIG

Время: 13:27 (06:27 UTC)

Прогноз

Эта сводка был подготовлена 1 час и 27 минут назад, в 05:00 UTC
Прогноз действительный с 13-го 06 UTC до 14-го 06 UTC
Ветер 4 Узел от юго-восточный
Видимость: 8000 м
Отдельные облака на высоте 2000 фута
Отдельные облака на высоте 5000 фута
временами
С 13-го 14 UTC до 13-го 20 UTC
Видимость: 3000 м
Рассеянная облачность на высоте 4000 фута
дымка

TAF: VLVT 130500Z 1306/1406 14004KT 8000 SCT020 SCT050 TEMPO 1314/1320 3000 BR BKN040

Метеонаблюдения и прогнозы для более 4000 аэропортов (сводки METAR и TAF).

Имеющиеся станции представлены на карте желтыми и красными точками.

Чтобы увидеть название станции, наведите на нее мышь.

Затем щелкните, чтобы увидеть метеонаблюдения и метеопрогнозы.

Управление картой: чтобы увеличить масштаб, щелкните зеленые кнопки с черным крестиком; чтобы уменьшить масштаб, щелкните зеленую кнопку с тире; для просмотра соседних карт щелкайте зеленые стрелки.


METAR-TAF: